• Join FlightAware (Why Join?)
  • Login
  • US Flag 
12:30AM EDT


 

Airport Tracker/Info


-or-


 

Live Flight TrackerFlight Track Log ✈ FLG3738 ✈ 10-May-2013 ✈ KMSP - KCWA

Flight Track Log - Related Links

Times and Time Zones

All times are in EDT time to prevent confusion due to time zone crossing. See the FLG3738 flight status page for this flight to view local times or setup timezone preferences in your user account.

Time Position Orientation Groundspeed Altitude Reporting Facility
EDT Latitude Longitude Course Direction KTS MPH feet Rate Location/Type
12:40PM 44.9000 -93.2333 66° East 157 181 1,700  Level Minneapolis TRACON
12:41PM 44.9500 -93.2667 335° Northwest 200 230 3,600 1,860 Climbing Minneapolis TRACON
12:42PM 44.9653 -93.2733 343° North 207 238 4,300 2,220 Climbing Minneapolis Center
12:43PM 45.0328 -93.2856 353° North 257 296 6,800 1,320 Climbing Minneapolis Center
12:44PM 44.9992 -92.7491 69° East  Level FlightAware Approximate
12:44PM 45.0897 -93.2231 38° Northeast 260 299 7,100  Level Minneapolis Center
12:45PM 45.0326 -92.6319 66° East  Level FlightAware Approximate
12:45PM 45.1169 -93.1250 68° East 275 316 9,600  Level Minneapolis Center
12:46PM 45.1400 -93.0136 74° East 292 336 11,300 1,680 Climbing Minneapolis Center
12:47PM 45.1697 -92.8831 72° East 344 396 13,100 1,740 Climbing Minneapolis Center
12:48PM 45.2006 -92.7481 72° East 358 412 15,000 900 Climbing Minneapolis Center
12:49PM 45.2400 -92.5764 72° East 385 443 15,000  Level Minneapolis Center
12:50PM 45.2486 -92.4286 85° East 384 442 15,100 -60 Climbing Minneapolis Center
12:51PM 45.2239 -92.2806 103° East 384 442 14,900 -120 Descending Minneapolis Center
12:52PM 45.1992 -92.1308 103° East 389 448 14,900  Level Minneapolis Center
12:53PM 45.1753 -91.9825 103° East 388 447 14,900  Level Minneapolis Center
12:54PM 45.1497 -91.8358 104° East 385 443 14,900  Level Minneapolis Center
12:55PM 45.1231 -91.6606 102° East 382 440 14,900  Level Minneapolis Center
12:56PM 45.0958 -91.5097 104° East 384 442 14,900  Level Minneapolis Center
12:57PM 45.0714 -91.3558 103° East 384 442 14,900  Level Minneapolis Center
12:58PM 45.0458 -91.2036 103° East 381 438 14,900 -660 Level Minneapolis Center
12:59PM 45.0214 -91.0533 103° East 377 434 13,600 -1,320 Descending Minneapolis Center
01:00PM 44.9994 -90.9283 104° East 346 398 12,200 -1,500 Descending Minneapolis Center
01:01PM 44.9792 -90.8086 103° East 306 352 10,500 -1,560 Descending Minneapolis Center
01:02PM 44.9597 -90.6972 104° East 282 325 9,000 -780 Descending Minneapolis Center
01:03PM 44.9408 -90.5889 104° East 274 315 9,000  Level Minneapolis Center
01:04PM 44.9222 -90.4792 103° East 276 318 9,000 -780 Level Minneapolis Center
01:05PM 44.9031 -90.3706 104° East 273 314 7,400 -1,020 Descending Minneapolis Center
01:06PM 44.8858 -90.2736 104° East 266 306 7,000 -660 Descending Minneapolis Center
01:07PM 44.8706 -90.1867 104° East 226 260 6,100 -1,320 Descending Minneapolis Center
01:09PM 44.8464 -90.0647 106° East  Level FlightAware Approximate
01:09PM 44.8394 -90.0111 106° East 222 255 3,000  Level Minneapolis Center
01:10PM 44.8239 -89.9272 105° East 216 249 3,000  Level Minneapolis Center
01:12PM 44.7886 -89.8564 125° Southeast 211 243 3,000  Level Minneapolis Center